الصفحة الرئيسية
METAR-TAF:

METAR-TAF

مطار :

Custer County Airport

Custer, داكوتا الجنوبية, الولايات المتحدة

دائرة عرض: 43-43-59N, خط طول: 103-37-03W, ارتفاع: 1707 متر

مراقبة الطقس الحالي

تاريخ ووقت الإصدار 12 دقيقة قبل الساعة 02:53UTC
رياح هادئة
درجة الحرارة -4°درجة مئوية
الرطوبة 58%
ضغط 1009 hPa
الرؤية: 16.1 كم
سماء صافية

METAR: KCUT 120253Z AUTO 00000KT 10SM CLR M04/M11 A2981 RMK AO2 SLP131 T10441106 58015

زمن: 20:05 (03:05 UTC)


TAF: مفقودة

أرصاد الطقس والتوقعات من أكثر من 4000 مطار (تقارير الطقس للمطار METAR والتنبؤ بالطقس بالمطارTAF).

المحطات المتاحة هي النقط الصفراء والحمراء على الخريطة.

حرك المؤشر فوق النقطة لمعرفة اسم المحطة.

ثم انقر لمعرفة أرصاد وتوقعات الطقس.

لتغيير الخارطة: اضغط على الأزرار الخضراء مع رمز الصليب الأسود للتكبير. على الزر الأخضر مع شرطة للتصغير، أو على الأسهم الخضراء للخرائط المجاورة.


METAR-TAF: